createdAt,value
2019-04-01T00:01:07.803Z,2.43
2019-04-01T00:03:39.545Z,2.33
2019-04-01T00:06:11.291Z,1.80
2019-04-01T00:08:43.097Z,1.90
2019-04-01T00:11:14.906Z,2.17
2019-04-01T00:13:46.608Z,2.20
2019-04-01T00:16:18.372Z,2.07
2019-04-01T00:19:02.515Z,2.30
2019-04-01T00:21:23.706Z,2.57
2019-04-01T00:23:55.412Z,1.53
2019-04-01T00:26:27.271Z,2.43
2019-04-01T00:28:58.983Z,1.70
2019-04-01T00:31:30.796Z,1.70
2019-04-01T00:34:02.506Z,2.00
2019-04-01T00:36:34.238Z,2.03
2019-04-01T00:39:06.453Z,2.57
2019-04-01T00:41:56.733Z,3.13
2019-04-01T00:44:28.544Z,1.80
2019-04-01T00:47:00.265Z,1.87
2019-04-01T00:49:31.964Z,1.97
2019-04-01T00:52:03.780Z,1.90
2019-04-01T00:54:35.573Z,2.10
2019-04-01T00:57:07.281Z,2.17
2019-04-01T00:59:38.992Z,1.83
2019-04-01T01:02:10.809Z,2.03
2019-04-01T01:04:42.492Z,1.47
2019-04-01T01:07:14.218Z,1.97
2019-04-01T01:09:46.018Z,1.97
2019-04-01T01:12:17.723Z,1.97
2019-04-01T01:14:49.445Z,2.20
2019-04-01T01:17:21.259Z,1.80
2019-04-01T01:19:52.972Z,1.77
2019-04-01T01:22:24.684Z,2.03
2019-04-01T01:24:56.380Z,1.77
2019-04-01T01:27:28.123Z,2.10
2019-04-01T01:29:59.815Z,2.90
2019-04-01T01:32:31.540Z,2.70
2019-04-01T01:35:03.504Z,2.20
2019-04-01T01:37:35.255Z,2.87
2019-04-01T01:40:07.064Z,2.13
2019-04-01T01:42:38.804Z,2.30
2019-04-01T01:45:10.705Z,2.30
2019-04-01T01:47:42.432Z,2.20
2019-04-01T01:50:14.257Z,1.87
2019-04-01T01:52:45.972Z,2.47
2019-04-01T01:55:17.696Z,2.07
2019-04-01T01:57:49.413Z,2.27
2019-04-01T02:00:22.636Z,1.87
2019-04-01T02:02:54.380Z,2.10
2019-04-01T02:05:26.105Z,2.30
2019-04-01T02:07:57.824Z,1.90
2019-04-01T02:10:29.534Z,2.00
2019-04-01T02:13:01.247Z,2.23
2019-04-01T02:15:33.261Z,3.67
2019-04-01T02:18:05.475Z,2.67
2019-04-01T02:20:37.180Z,2.43
2019-04-01T02:23:08.921Z,2.27
2019-04-01T02:25:40.617Z,2.27
2019-04-01T02:28:12.351Z,2.23
2019-04-01T02:30:44.313Z,1.90
2019-04-01T02:33:16.028Z,3.00
2019-04-01T02:35:47.734Z,3.20
2019-04-01T02:38:19.864Z,2.27
2019-04-01T02:40:51.606Z,2.27
2019-04-01T02:43:23.440Z,2.03
2019-04-01T02:45:55.138Z,2.70
2019-04-01T02:48:26.974Z,1.43
2019-04-01T02:50:58.769Z,2.43
2019-04-01T02:53:30.501Z,2.20
2019-04-01T02:56:02.499Z,2.47
2019-04-01T02:58:34.358Z,2.10
2019-04-01T03:01:06.053Z,1.93
2019-04-01T03:03:37.970Z,2.50
2019-04-01T03:06:09.774Z,2.30
2019-04-01T03:08:41.608Z,3.20
2019-04-01T03:11:13.420Z,2.37
2019-04-01T03:13:45.235Z,2.40
2019-04-01T03:16:16.938Z,2.37
2019-04-01T03:18:48.744Z,4.27
2019-04-01T03:21:20.545Z,3.30
2019-04-01T03:23:52.272Z,3.93
2019-04-01T03:26:24.073Z,3.53
2019-04-01T03:28:55.874Z,2.93
2019-04-01T03:31:27.589Z,2.63
2019-04-01T03:33:59.406Z,2.53
2019-04-01T03:36:31.207Z,2.43
2019-04-01T03:39:05.633Z,2.47
2019-04-01T03:41:37.444Z,2.30
2019-04-01T03:44:09.153Z,3.03
2019-04-01T03:46:40.860Z,2.50
2019-04-01T03:49:12.817Z,2.67
2019-04-01T03:51:44.924Z,3.00
2019-04-01T03:54:16.729Z,2.93
2019-04-01T03:56:48.501Z,2.60
2019-04-01T03:59:20.213Z,3.13
2019-04-01T04:01:52.074Z,2.70
2019-04-01T04:04:23.845Z,2.47
2019-04-01T04:06:55.565Z,2.47
2019-04-01T04:09:27.364Z,3.43
2019-04-01T04:11:59.187Z,3.37
2019-04-01T04:14:30.995Z,2.50
2019-04-01T04:17:02.799Z,2.70
2019-04-01T04:19:34.698Z,2.33
2019-04-01T04:22:06.606Z,2.73
2019-04-01T04:24:38.472Z,2.87
2019-04-01T04:27:11.409Z,3.17
2019-04-01T04:29:43.465Z,3.10
2019-04-01T04:32:15.265Z,3.30
2019-04-01T04:34:46.997Z,3.07
2019-04-01T04:37:18.804Z,3.03
2019-04-01T04:39:50.541Z,2.43
2019-04-01T04:42:22.435Z,2.90
2019-04-01T04:44:54.260Z,2.83
2019-04-01T04:47:25.975Z,3.33
2019-04-01T04:49:57.696Z,3.77
2019-04-01T04:52:29.400Z,2.47
2019-04-01T04:55:01.120Z,3.10
2019-04-01T04:57:32.815Z,4.27
2019-04-01T05:00:07.173Z,5.53
2019-04-01T05:02:38.996Z,4.30
2019-04-01T05:05:10.767Z,5.77
2019-04-01T05:07:42.528Z,3.33
2019-04-01T05:10:14.663Z,3.37
2019-04-01T05:12:47.231Z,3.50
2019-04-01T05:15:18.959Z,3.13
2019-04-01T05:17:50.760Z,3.50
2019-04-01T05:20:22.591Z,2.53
2019-04-01T05:22:54.885Z,3.03
2019-04-01T05:25:27.385Z,4.57
2019-04-01T05:28:02.124Z,2.50
2019-04-01T05:30:35.932Z,2.20
2019-04-01T05:33:10.945Z,3.20
2019-04-01T05:35:42.669Z,2.77
2019-04-01T05:38:15.375Z,2.57
2019-04-01T05:40:47.752Z,3.10
2019-04-01T05:43:19.469Z,3.50
2019-04-01T05:45:51.399Z,3.23
2019-04-01T05:48:27.694Z,2.60
2019-04-01T05:50:59.524Z,3.43
2019-04-01T05:53:31.264Z,3.17
2019-04-01T05:56:03.377Z,3.00
2019-04-01T05:58:35.183Z,3.73
2019-04-01T06:01:13.256Z,2.97
2019-04-01T06:03:45.166Z,5.07
2019-04-01T06:06:17.007Z,3.93
2019-04-01T06:08:48.787Z,3.17
2019-04-01T06:11:20.600Z,3.40
2019-04-01T06:13:52.600Z,2.90
2019-04-01T06:16:24.492Z,4.73
2019-04-01T06:18:56.294Z,3.17
2019-04-01T06:21:28.501Z,3.67
2019-04-01T06:24:00.213Z,4.10
2019-04-01T06:26:32.178Z,4.00
2019-04-01T06:29:04.049Z,4.10
2019-04-01T06:31:35.867Z,4.53
2019-04-01T06:34:07.689Z,3.60
2019-04-01T06:36:39.708Z,3.57
2019-04-01T06:39:11.679Z,5.00
2019-04-01T06:41:43.501Z,4.20
2019-04-01T06:44:15.308Z,4.50
2019-04-01T06:46:47.130Z,3.50
2019-04-01T06:49:20.395Z,3.80
2019-04-01T06:51:52.248Z,4.20
2019-04-01T06:54:24.064Z,3.93
2019-04-01T06:56:56.087Z,3.83
2019-04-01T06:59:27.800Z,3.20
2019-04-01T07:01:59.808Z,3.67
2019-04-01T07:04:31.673Z,2.93
2019-04-01T07:07:17.847Z,2.60
2019-04-01T07:09:37.474Z,2.63
2019-04-01T07:12:09.301Z,3.60
2019-04-01T07:14:41.029Z,2.73
2019-04-01T07:17:12.851Z,2.30
2019-04-01T07:19:44.684Z,2.47
2019-04-01T07:22:16.388Z,2.73
2019-04-01T07:24:48.195Z,2.30
2019-04-01T07:27:19.940Z,2.00
2019-04-01T07:29:51.853Z,2.30
2019-04-01T07:32:23.671Z,2.20
2019-04-01T07:34:55.402Z,3.10
2019-04-01T07:37:27.158Z,2.93
2019-04-01T07:39:59.276Z,2.43
2019-04-01T07:42:31.216Z,2.00
2019-04-01T07:45:04.146Z,1.90
2019-04-01T07:47:35.972Z,2.40
2019-04-01T07:50:08.198Z,2.37
2019-04-01T07:52:40.016Z,2.40
2019-04-01T07:55:12.028Z,2.33
2019-04-01T07:57:43.762Z,2.33
2019-04-01T08:00:15.718Z,2.03
2019-04-01T08:02:49.122Z,2.13
2019-04-01T08:05:21.152Z,1.93
2019-04-01T08:07:53.381Z,2.70
2019-04-01T08:10:25.196Z,1.83
2019-04-01T08:12:57.132Z,2.10
2019-04-01T08:15:29.139Z,2.23
2019-04-01T08:18:00.865Z,2.77
2019-04-01T08:20:32.689Z,2.43
2019-04-01T08:23:04.696Z,2.00
2019-04-01T08:25:36.432Z,1.60
2019-04-01T08:28:08.245Z,1.73
2019-04-01T08:30:39.964Z,2.23
2019-04-01T08:33:11.730Z,1.97
2019-04-01T08:35:43.641Z,1.93
2019-04-01T08:38:15.349Z,1.70
2019-04-01T08:40:47.158Z,1.70
2019-04-01T08:43:19.025Z,1.40
2019-04-01T08:45:50.730Z,1.23
2019-04-01T08:48:22.447Z,1.30
2019-04-01T08:50:54.360Z,0.73
2019-04-01T08:53:26.809Z,1.57
2019-04-01T08:56:00.873Z,1.73
2019-04-01T08:58:32.447Z,1.30
2019-04-01T09:01:04.265Z,1.50
2019-04-01T09:03:36.068Z,1.03
2019-04-01T09:06:07.921Z,1.10
2019-04-01T09:08:41.113Z,1.47
2019-04-01T09:11:12.920Z,1.37
2019-04-01T09:13:44.787Z,1.50
2019-04-01T09:16:16.687Z,1.87
2019-04-01T09:18:48.409Z,1.37
2019-04-01T09:21:20.113Z,2.03
2019-04-01T09:23:52.293Z,1.20
2019-04-01T09:26:24.354Z,2.10
2019-04-01T09:28:56.300Z,2.03
2019-04-01T09:31:28.007Z,1.50
2019-04-01T09:33:59.731Z,1.47
2019-04-01T09:36:31.542Z,1.77
2019-04-01T09:39:05.937Z,1.80
2019-04-01T09:41:37.651Z,1.60
2019-04-01T09:44:09.372Z,1.57
2019-04-01T09:46:41.084Z,1.60
2019-04-01T09:49:12.799Z,1.70
2019-04-01T09:51:48.823Z,1.00
2019-04-01T09:54:18.155Z,1.15
2019-04-01T09:56:49.856Z,1.67
2019-04-01T09:59:21.676Z,1.50
2019-04-01T10:01:53.485Z,2.00
2019-04-01T10:04:25.201Z,2.33
2019-04-01T10:06:56.949Z,1.20
2019-04-01T10:09:28.650Z,1.33
2019-04-01T10:12:00.352Z,1.07
2019-04-01T10:14:32.083Z,1.37
2019-04-01T10:17:03.793Z,1.33
2019-04-01T10:19:35.540Z,1.60
2019-04-01T10:22:07.355Z,1.70
2019-04-01T10:24:39.171Z,1.70
2019-04-01T10:27:10.884Z,1.57
2019-04-01T10:29:42.719Z,1.37
2019-04-01T10:32:14.412Z,1.40
2019-04-01T10:34:46.225Z,1.40
2019-04-01T10:37:17.973Z,1.80
2019-04-01T10:39:49.697Z,0.90
2019-04-01T10:42:21.415Z,1.40
2019-04-01T10:44:53.149Z,1.30
2019-04-01T10:47:24.967Z,1.07
2019-04-01T10:49:56.797Z,1.20
2019-04-01T10:52:28.616Z,1.40
2019-04-01T10:55:00.559Z,1.63
2019-04-01T10:57:32.312Z,1.37
2019-04-01T11:00:07.041Z,1.43
2019-04-01T11:02:38.825Z,1.30
2019-04-01T11:05:10.875Z,1.57
2019-04-01T11:07:42.795Z,1.27
2019-04-01T11:10:14.797Z,1.73
2019-04-01T11:12:46.506Z,1.70
2019-04-01T11:15:20.159Z,1.80
2019-04-01T11:17:52.843Z,1.20
2019-04-01T11:20:24.711Z,1.30
2019-04-01T11:22:56.424Z,1.30
2019-04-01T11:25:28.150Z,1.53
2019-04-01T11:27:59.958Z,1.90
2019-04-01T11:30:31.735Z,1.40
2019-04-01T11:33:04.707Z,1.80
2019-04-01T11:35:37.351Z,1.50
2019-04-01T11:38:09.191Z,1.70
2019-04-01T11:40:41.100Z,1.67
2019-04-01T11:43:12.895Z,1.33
2019-04-01T11:45:44.741Z,1.70
2019-04-01T11:48:16.528Z,1.70
2019-04-01T11:50:48.457Z,1.17
2019-04-01T11:53:20.240Z,1.30
2019-04-01T11:55:51.977Z,1.40
2019-04-01T11:58:23.704Z,1.23
2019-04-01T12:00:55.453Z,1.37
2019-04-01T12:03:27.268Z,1.90
2019-04-01T12:05:58.996Z,1.10
2019-04-01T12:08:30.910Z,1.73
2019-04-01T12:11:02.933Z,1.27
2019-04-01T12:13:34.736Z,1.23
2019-04-01T12:16:06.885Z,0.87
2019-04-01T12:18:38.975Z,1.40
2019-04-01T12:21:10.801Z,1.40
2019-04-01T12:23:42.616Z,1.37
2019-04-01T12:26:15.850Z,1.40
2019-04-01T12:28:48.043Z,1.30
2019-04-01T12:31:21.562Z,1.13
2019-04-01T12:33:53.588Z,1.20
2019-04-01T12:36:25.304Z,1.77
2019-04-01T12:38:57.117Z,1.30
2019-04-01T12:41:28.840Z,1.40
2019-04-01T12:44:00.560Z,2.20
2019-04-01T12:46:32.536Z,1.60
2019-04-01T12:49:04.455Z,1.40
2019-04-01T12:51:36.285Z,1.47
2019-04-01T12:54:08.100Z,1.37
2019-04-01T12:56:39.828Z,2.10
2019-04-01T12:59:11.542Z,2.50
2019-04-01T13:01:43.389Z,1.60
2019-04-01T13:04:15.093Z,1.27
2019-04-01T13:06:46.853Z,1.60
2019-04-01T13:09:18.648Z,1.77
2019-04-01T13:11:50.485Z,1.47
2019-04-01T13:14:22.198Z,1.10
2019-04-01T13:16:53.936Z,1.80
2019-04-01T13:19:25.649Z,1.80
2019-04-01T13:21:57.410Z,1.30
2019-04-01T13:24:29.114Z,1.50
2019-04-01T13:27:00.833Z,1.47
2019-04-01T13:29:32.634Z,1.43
2019-04-01T13:32:04.455Z,1.20
2019-04-01T13:34:36.153Z,1.57
2019-04-01T13:37:07.909Z,1.20
2019-04-01T13:39:39.754Z,1.50
2019-04-01T13:42:11.584Z,1.40
2019-04-01T13:44:43.292Z,1.60
2019-04-01T13:47:15.050Z,1.40
2019-04-01T13:49:46.747Z,1.57
2019-04-01T13:52:18.557Z,1.97
2019-04-01T13:54:50.476Z,1.17
2019-04-01T13:57:22.216Z,1.73
2019-04-01T13:59:54.018Z,1.50
2019-04-01T14:02:27.033Z,1.93
2019-04-01T14:04:59.352Z,1.20
2019-04-01T14:07:31.085Z,1.40
2019-04-01T14:10:04.198Z,1.40
2019-04-01T14:12:35.919Z,1.60
2019-04-01T14:15:08.359Z,1.20
2019-04-01T14:17:40.187Z,1.03
2019-04-01T14:20:12.185Z,1.30
2019-04-01T14:22:44.413Z,1.30
2019-04-01T14:25:16.421Z,0.70
2019-04-01T14:27:48.136Z,1.27
2019-04-01T14:30:20.049Z,1.10
2019-04-01T14:32:51.773Z,1.27
2019-04-01T14:35:23.947Z,1.17
2019-04-01T14:37:58.165Z,1.10
2019-04-01T14:40:32.480Z,1.27
2019-04-01T14:43:03.504Z,0.90
2019-04-01T14:45:35.490Z,0.80
2019-04-01T14:48:08.668Z,0.73
2019-04-01T14:50:40.753Z,0.87
2019-04-01T14:53:12.578Z,0.90
2019-04-01T14:55:44.360Z,1.20
2019-04-01T14:58:16.080Z,1.13
2019-04-01T15:00:47.983Z,0.73
2019-04-01T15:03:19.727Z,1.07
2019-04-01T15:05:51.548Z,0.90
2019-04-01T15:08:23.258Z,0.90
2019-04-01T15:10:55.061Z,0.80
2019-04-01T15:13:26.796Z,1.13
2019-04-01T15:15:58.599Z,1.20
2019-04-01T15:18:30.328Z,1.20
2019-04-01T15:21:02.349Z,1.17
2019-04-01T15:23:34.163Z,1.83
2019-04-01T15:26:05.953Z,1.40
2019-04-01T15:28:37.722Z,1.27
2019-04-01T15:31:09.528Z,1.10
2019-04-01T15:33:41.241Z,1.07
2019-04-01T15:36:12.973Z,1.13
2019-04-01T15:38:44.713Z,1.20
2019-04-01T15:41:16.527Z,1.10
2019-04-01T15:43:48.349Z,1.60
2019-04-01T15:46:20.182Z,1.10
2019-04-01T15:48:51.995Z,1.53
2019-04-01T15:51:23.879Z,1.17
2019-04-01T15:53:55.588Z,1.40
2019-04-01T15:56:27.360Z,1.10
2019-04-01T15:59:00.967Z,1.43
2019-04-01T16:01:32.975Z,1.60
2019-04-01T16:04:04.863Z,1.43
2019-04-01T16:06:36.611Z,1.10
2019-04-01T16:09:08.865Z,1.33
2019-04-01T16:11:40.612Z,1.57
2019-04-01T16:14:12.437Z,1.40
2019-04-01T16:16:44.240Z,1.00
2019-04-01T16:19:15.975Z,1.07
2019-04-01T16:21:47.664Z,1.03
2019-04-01T16:24:19.380Z,1.50
2019-04-01T16:26:51.083Z,1.63
2019-04-01T16:29:22.823Z,1.47
2019-04-01T16:31:55.537Z,1.67
2019-04-01T16:34:28.046Z,1.40
2019-04-01T16:36:59.772Z,1.40
2019-04-01T16:39:31.607Z,1.87
2019-04-01T16:42:03.320Z,1.93
2019-04-01T16:44:35.193Z,1.60
2019-04-01T16:47:07.000Z,1.57
2019-04-01T16:49:38.717Z,1.60
2019-04-01T16:52:10.415Z,1.80
2019-04-01T16:54:46.637Z,1.60
2019-04-01T16:57:18.343Z,2.13
2019-04-01T16:59:50.184Z,1.90
2019-04-01T17:02:22.179Z,2.53
2019-04-01T17:04:53.919Z,1.37
2019-04-01T17:07:25.724Z,2.40
2019-04-01T17:09:58.329Z,3.00
2019-04-01T17:12:30.419Z,1.93
2019-04-01T17:15:03.650Z,2.00
2019-04-01T17:17:35.627Z,2.50
2019-04-01T17:20:07.693Z,2.20
2019-04-01T17:22:39.440Z,2.27
2019-04-01T17:25:11.471Z,2.67
2019-04-01T17:27:43.338Z,2.30
2019-04-01T17:30:15.657Z,2.20
2019-04-01T17:32:47.361Z,1.90
2019-04-01T17:35:19.097Z,2.10
2019-04-01T17:37:50.903Z,2.23
2019-04-01T17:40:22.660Z,2.07
2019-04-01T17:42:54.364Z,2.60
2019-04-01T17:45:30.226Z,2.13
2019-04-01T17:48:02.149Z,2.13
2019-04-01T17:50:34.103Z,2.37
2019-04-01T17:53:08.000Z,2.20
2019-04-01T17:55:39.824Z,2.67
2019-04-01T17:58:11.539Z,2.17
2019-04-01T18:00:51.127Z,2.40
2019-04-01T18:03:22.925Z,2.20
2019-04-01T18:05:54.751Z,2.67
2019-04-01T18:08:26.451Z,2.27
2019-04-01T18:10:58.201Z,2.67
2019-04-01T18:13:29.927Z,2.37
2019-04-01T18:16:01.648Z,2.40
2019-04-01T18:18:34.188Z,2.00
2019-04-01T18:21:06.180Z,2.43
2019-04-01T18:23:37.912Z,2.00
2019-04-01T18:26:09.637Z,2.37
2019-04-01T18:28:41.509Z,2.43
2019-04-01T18:31:13.283Z,2.30
2019-04-01T18:33:55.639Z,1.70
2019-04-01T18:36:18.673Z,2.10
2019-04-01T18:38:50.481Z,2.43
2019-04-01T18:41:22.212Z,2.30
2019-04-01T18:43:54.039Z,2.23
2019-04-01T18:46:25.857Z,1.70
2019-04-01T18:48:57.588Z,2.37
2019-04-01T18:51:29.409Z,2.33
2019-04-01T18:54:01.263Z,2.23
2019-04-01T18:56:33.106Z,1.70
2019-04-01T18:59:05.025Z,2.30
2019-04-01T19:01:36.889Z,2.30
2019-04-01T19:04:08.636Z,2.20
2019-04-01T19:06:40.409Z,1.70
2019-04-01T19:09:12.259Z,1.83
2019-04-01T19:11:44.163Z,2.50
2019-04-01T19:14:16.081Z,2.37
2019-04-01T19:16:48.166Z,1.90
2019-04-01T19:19:20.381Z,1.80
2019-04-01T19:21:52.380Z,1.90
2019-04-01T19:24:24.425Z,2.60
2019-04-01T19:26:56.200Z,2.00
2019-04-01T19:29:27.968Z,1.57
2019-04-01T19:31:59.822Z,2.33
2019-04-01T19:34:31.646Z,2.20
2019-04-01T19:37:03.642Z,2.17
2019-04-01T19:39:36.144Z,1.93
2019-04-01T19:42:08.088Z,2.40
2019-04-01T19:44:39.896Z,2.77
2019-04-01T19:47:11.832Z,1.83
2019-04-01T19:49:43.873Z,2.20
2019-04-01T19:52:15.729Z,1.80
2019-04-01T19:54:47.656Z,2.30
2019-04-01T19:57:19.505Z,2.10
2019-04-01T19:59:51.293Z,2.10
2019-04-01T20:02:23.518Z,2.00
2019-04-01T20:04:55.321Z,1.87
2019-04-01T20:07:27.166Z,1.90
2019-04-01T20:09:59.014Z,2.23
2019-04-01T20:12:30.860Z,2.30
2019-04-01T20:15:04.238Z,2.40
2019-04-01T20:17:35.976Z,2.20
2019-04-01T20:20:08.185Z,2.10
2019-04-01T20:22:39.906Z,2.70
2019-04-01T20:25:12.209Z,1.93
2019-04-01T20:27:44.362Z,2.00
2019-04-01T20:30:16.745Z,1.87
2019-04-01T20:32:49.178Z,2.30
2019-04-01T20:35:23.608Z,2.60
2019-04-01T20:37:54.829Z,1.97
2019-04-01T20:40:26.761Z,2.40
2019-04-01T20:42:58.469Z,1.97
2019-04-01T20:45:30.292Z,2.43
2019-04-01T20:48:02.032Z,2.40
2019-04-01T20:50:33.828Z,1.90
2019-04-01T20:53:05.553Z,2.60
2019-04-01T20:55:47.606Z,3.37
2019-04-01T20:58:10.894Z,2.93
2019-04-01T21:00:42.710Z,1.57
2019-04-01T21:03:14.524Z,2.40
2019-04-01T21:05:46.419Z,2.90
2019-04-01T21:08:18.144Z,2.47
2019-04-01T21:10:49.936Z,2.90
2019-04-01T21:13:21.761Z,2.20
2019-04-01T21:15:53.451Z,2.60
2019-04-01T21:18:25.194Z,2.37
2019-04-01T21:20:56.900Z,2.27
2019-04-01T21:23:28.623Z,2.20
2019-04-01T21:26:00.329Z,2.43
2019-04-01T21:28:32.053Z,3.00
2019-04-01T21:31:03.970Z,1.77
2019-04-01T21:33:35.796Z,2.60
2019-04-01T21:36:07.574Z,2.43
2019-04-01T21:38:39.444Z,2.40
2019-04-01T21:41:11.256Z,2.60
2019-04-01T21:43:43.077Z,2.37
2019-04-01T21:46:14.898Z,3.40
2019-04-01T21:48:46.693Z,2.67
2019-04-01T21:51:18.403Z,2.63
2019-04-01T21:53:50.132Z,3.13
2019-04-01T21:56:22.166Z,2.93
2019-04-01T21:58:54.849Z,2.80
2019-04-01T22:01:26.657Z,3.10
2019-04-01T22:03:58.378Z,2.33
2019-04-01T22:06:30.096Z,3.47
2019-04-01T22:09:02.118Z,2.70
2019-04-01T22:11:33.897Z,2.13
2019-04-01T22:14:05.620Z,2.60
2019-04-01T22:16:37.323Z,3.00
2019-04-01T22:19:09.136Z,2.67
2019-04-01T22:21:40.856Z,2.67
2019-04-01T22:24:12.596Z,2.67
2019-04-01T22:26:44.304Z,2.93
2019-04-01T22:29:16.036Z,2.60
2019-04-01T22:31:47.764Z,3.07
2019-04-01T22:34:19.585Z,2.93
2019-04-01T22:36:51.279Z,3.33
2019-04-01T22:39:27.238Z,3.20
2019-04-01T22:41:58.239Z,3.07
2019-04-01T22:44:30.374Z,3.00
2019-04-01T22:47:02.072Z,3.20
2019-04-01T22:49:33.789Z,3.17
2019-04-01T22:52:06.408Z,2.53
2019-04-01T22:54:38.596Z,3.17
2019-04-01T22:57:10.300Z,2.80
2019-04-01T22:59:42.049Z,2.73
2019-04-01T23:02:13.983Z,3.10
2019-04-01T23:04:45.798Z,3.27
2019-04-01T23:07:17.597Z,3.33
2019-04-01T23:09:49.307Z,2.80
2019-04-01T23:12:22.231Z,3.20
2019-04-01T23:14:54.229Z,3.30
2019-04-01T23:17:25.923Z,3.37
2019-04-01T23:19:57.637Z,2.97
2019-04-01T23:22:29.674Z,3.23
2019-04-01T23:25:01.542Z,3.53
2019-04-01T23:27:33.240Z,3.13
2019-04-01T23:30:07.520Z,2.80
2019-04-01T23:32:41.683Z,3.53
2019-04-01T23:35:12.969Z,3.27
2019-04-01T23:37:44.832Z,3.13
2019-04-01T23:40:16.768Z,3.40
2019-04-01T23:42:48.469Z,3.03
2019-04-01T23:45:21.103Z,2.97
2019-04-01T23:47:53.237Z,3.13
2019-04-01T23:50:24.951Z,3.43
2019-04-01T23:52:56.644Z,3.60
2019-04-01T23:55:29.269Z,2.87
2019-04-01T23:58:01.483Z,3.17
